createdAt,value
2022-10-22T00:01:08.810Z,10.88
2022-10-22T00:03:35.565Z,10.73
2022-10-22T00:06:02.408Z,12.25
2022-10-22T00:08:29.488Z,10.95
2022-10-22T00:10:56.236Z,9.68
2022-10-22T00:13:23.135Z,10.18
2022-10-22T00:15:49.845Z,9.52
2022-10-22T00:18:16.471Z,10.40
2022-10-22T00:20:43.552Z,10.23
2022-10-22T00:23:10.189Z,10.50
2022-10-22T00:25:36.904Z,9.57
2022-10-22T00:28:04.366Z,11.13
2022-10-22T00:30:31.181Z,10.93
2022-10-22T00:32:58.113Z,10.48
2022-10-22T00:35:24.803Z,9.90
2022-10-22T00:37:52.478Z,10.85
2022-10-22T00:40:19.197Z,9.52
2022-10-22T00:42:45.947Z,8.80
2022-10-22T00:45:12.523Z,8.98
2022-10-22T00:47:47.075Z,9.60
2022-10-22T00:50:37.197Z,9.10
2022-10-22T00:53:06.844Z,8.55
2022-10-22T00:55:33.555Z,8.77
2022-10-22T00:58:01.589Z,8.10
2022-10-22T01:00:28.443Z,8.85
2022-10-22T01:02:55.504Z,7.28
2022-10-22T01:05:22.415Z,8.38
2022-10-22T01:07:51.676Z,7.28
2022-10-22T01:10:29.019Z,7.28
2022-10-22T01:13:21.984Z,6.85
2022-10-22T01:16:17.626Z,7.28
2022-10-22T01:19:22.592Z,7.53
2022-10-22T01:21:56.116Z,6.68
2022-10-22T01:24:37.526Z,6.95
2022-10-22T01:27:30.385Z,6.72
2022-10-22T01:30:11.427Z,6.60
2022-10-22T01:32:42.005Z,6.00
2022-10-22T01:35:11.307Z,7.18
2022-10-22T01:37:48.901Z,7.47
2022-10-22T01:40:16.599Z,7.60
2022-10-22T01:42:43.296Z,6.28
2022-10-22T01:45:14.330Z,6.20
2022-10-22T01:47:59.508Z,5.43
2022-10-22T01:50:41.926Z,5.70
2022-10-22T01:53:11.535Z,5.95
2022-10-22T01:55:50.099Z,5.65
2022-10-22T01:58:34.897Z,6.82
2022-10-22T02:01:42.702Z,6.45
2022-10-22T02:04:12.230Z,6.13
2022-10-22T02:06:39.277Z,5.68
2022-10-22T02:09:06.756Z,6.15
2022-10-22T02:11:34.077Z,5.88
2022-10-22T02:14:03.253Z,5.90
2022-10-22T02:16:39.533Z,5.55
2022-10-22T02:19:13.673Z,6.22
2022-10-22T02:21:40.368Z,4.95
2022-10-22T02:24:07.567Z,5.15
2022-10-22T02:26:40.042Z,5.60
2022-10-22T02:29:12.083Z,5.05
2022-10-22T02:31:40.966Z,5.63
2022-10-22T02:34:11.475Z,4.32
2022-10-22T02:36:39.101Z,5.03
2022-10-22T02:39:06.976Z,4.85
2022-10-22T02:41:33.672Z,4.38
2022-10-22T02:44:02.237Z,5.57
2022-10-22T02:46:28.982Z,5.05
2022-10-22T02:48:55.609Z,4.20
2022-10-22T02:51:22.249Z,4.85
2022-10-22T02:53:48.871Z,4.45
2022-10-22T02:56:15.521Z,5.32
2022-10-22T02:58:42.213Z,4.72
2022-10-22T03:01:10.372Z,5.32
2022-10-22T03:03:39.106Z,4.32
2022-10-22T03:06:05.917Z,5.22
2022-10-22T03:08:32.560Z,5.60
2022-10-22T03:10:59.184Z,5.00
2022-10-22T03:13:29.129Z,4.88
2022-10-22T03:15:55.704Z,4.57
2022-10-22T03:18:22.286Z,4.32
2022-10-22T03:20:48.927Z,4.80
2022-10-22T03:23:18.035Z,4.75
2022-10-22T03:25:45.240Z,4.68
2022-10-22T03:28:14.315Z,5.00
2022-10-22T03:30:41.097Z,4.40
2022-10-22T03:33:07.733Z,4.68
2022-10-22T03:35:39.446Z,4.97
2022-10-22T03:38:06.124Z,4.30
2022-10-22T03:40:32.728Z,4.60
2022-10-22T03:42:59.435Z,5.00
2022-10-22T03:45:26.157Z,6.60
2022-10-22T03:47:52.799Z,5.50
2022-10-22T03:50:19.451Z,5.75
2022-10-22T03:52:46.104Z,5.22
2022-10-22T03:55:12.694Z,6.10
2022-10-22T03:57:39.615Z,5.25
2022-10-22T04:00:07.330Z,5.65
2022-10-22T04:02:33.936Z,5.20
2022-10-22T04:05:00.604Z,5.72
2022-10-22T04:07:27.394Z,5.53
2022-10-22T04:09:53.968Z,5.85
2022-10-22T04:12:20.606Z,5.68
2022-10-22T04:14:47.811Z,4.70
2022-10-22T04:17:15.362Z,4.82
2022-10-22T04:19:41.950Z,4.93
2022-10-22T04:22:08.621Z,4.78
2022-10-22T04:24:35.335Z,4.55
2022-10-22T04:27:01.945Z,4.53
2022-10-22T04:29:30.706Z,5.25
2022-10-22T04:31:57.323Z,5.18
2022-10-22T04:34:27.823Z,4.70
2022-10-22T04:36:54.464Z,4.90
2022-10-22T04:39:21.072Z,4.68
2022-10-22T04:41:47.709Z,4.60
2022-10-22T04:44:18.205Z,4.05
2022-10-22T04:46:45.386Z,4.93
2022-10-22T04:49:12.040Z,4.40
2022-10-22T04:51:38.888Z,4.15
2022-10-22T04:54:05.920Z,4.45
2022-10-22T04:56:32.722Z,4.40
2022-10-22T04:59:05.223Z,4.55
2022-10-22T05:01:33.898Z,4.38
2022-10-22T05:04:02.380Z,4.15
2022-10-22T05:06:30.444Z,3.92
2022-10-22T05:09:02.481Z,4.18
2022-10-22T05:11:31.384Z,4.72
2022-10-22T05:13:58.650Z,4.28
2022-10-22T05:16:25.887Z,4.68
2022-10-22T05:18:53.304Z,5.03
2022-10-22T05:21:20.664Z,4.75
2022-10-22T05:23:48.808Z,4.53
2022-10-22T05:26:18.265Z,5.05
2022-10-22T05:28:45.358Z,5.43
2022-10-22T05:31:12.824Z,5.97
2022-10-22T05:33:40.237Z,5.55
2022-10-22T05:36:08.773Z,6.63
2022-10-22T05:38:35.692Z,7.18
2022-10-22T05:41:10.381Z,6.75
2022-10-22T05:43:37.701Z,6.72
2022-10-22T05:46:06.923Z,7.47
2022-10-22T05:48:33.650Z,8.65
2022-10-22T05:51:11.984Z,8.77
2022-10-22T05:53:40.590Z,8.07
2022-10-22T05:56:09.638Z,7.68
2022-10-22T05:58:36.704Z,7.03
2022-10-22T06:01:10.977Z,6.68
2022-10-22T06:03:37.622Z,6.50
2022-10-22T06:06:43.659Z,5.80
2022-10-22T06:09:19.957Z,5.78
2022-10-22T06:11:47.348Z,6.18
2022-10-22T06:14:13.932Z,5.28
2022-10-22T06:16:41.018Z,5.95
2022-10-22T06:19:10.297Z,6.13
2022-10-22T06:21:36.952Z,6.13
2022-10-22T06:24:06.713Z,6.22
2022-10-22T06:26:33.355Z,6.53
2022-10-22T06:29:00.304Z,6.00
2022-10-22T06:31:28.569Z,5.72
2022-10-22T06:33:58.091Z,5.82
2022-10-22T06:36:25.242Z,6.45
2022-10-22T06:38:53.803Z,7.07
2022-10-22T06:41:24.218Z,7.05
2022-10-22T06:43:54.022Z,6.60
2022-10-22T06:46:23.205Z,12.30
2022-10-22T06:48:54.437Z,11.15
2022-10-22T06:51:21.251Z,11.45
2022-10-22T06:53:48.264Z,10.40
2022-10-22T06:56:18.661Z,11.15
2022-10-22T06:58:49.168Z,12.25
2022-10-22T07:01:22.180Z,10.50
2022-10-22T07:03:51.205Z,11.15
2022-10-22T07:06:18.391Z,10.65
2022-10-22T07:08:46.443Z,10.75
2022-10-22T07:11:14.565Z,13.77
2022-10-22T07:13:43.024Z,15.32
2022-10-22T07:16:10.550Z,12.38
2022-10-22T07:18:38.373Z,13.40
2022-10-22T07:21:06.439Z,12.50
2022-10-22T07:23:33.144Z,14.38
2022-10-22T07:26:03.045Z,12.75
2022-10-22T07:28:30.651Z,13.15
2022-10-22T07:30:57.416Z,10.65
2022-10-22T07:33:24.090Z,11.65
2022-10-22T07:35:50.764Z,12.93
2022-10-22T07:38:18.560Z,11.57
2022-10-22T07:40:45.985Z,12.57
2022-10-22T07:43:12.705Z,11.77
2022-10-22T07:45:41.243Z,10.95
2022-10-22T07:48:08.054Z,9.50
2022-10-22T07:50:34.759Z,10.18
2022-10-22T07:53:01.473Z,8.75
2022-10-22T07:55:28.099Z,8.75
2022-10-22T07:57:57.540Z,8.18
2022-10-22T08:00:25.316Z,7.45
2022-10-22T08:02:53.277Z,6.47
2022-10-22T08:05:19.962Z,7.25
2022-10-22T08:07:46.807Z,6.65
2022-10-22T08:10:13.898Z,5.95
2022-10-22T08:12:41.078Z,6.13
2022-10-22T08:15:08.594Z,6.20
2022-10-22T08:17:36.711Z,5.65
2022-10-22T08:20:04.395Z,5.53
2022-10-22T08:22:31.394Z,5.22
2022-10-22T08:24:59.216Z,5.28
2022-10-22T08:27:26.017Z,5.07
2022-10-22T08:29:52.627Z,4.40
2022-10-22T08:32:19.345Z,5.13
2022-10-22T08:34:46.016Z,3.60
2022-10-22T08:37:14.413Z,3.97
2022-10-22T08:39:41.378Z,3.97
2022-10-22T08:42:26.328Z,3.28
2022-10-22T08:45:36.061Z,3.28
2022-10-22T08:48:02.669Z,3.70
2022-10-22T08:50:47.255Z,3.22
2022-10-22T08:53:16.707Z,3.28
2022-10-22T08:55:44.676Z,2.80
2022-10-22T08:58:29.916Z,2.90
2022-10-22T09:01:01.705Z,3.20
2022-10-22T09:03:39.924Z,3.88
2022-10-22T09:06:14.091Z,3.15
2022-10-22T09:08:42.912Z,3.38
2022-10-22T09:11:12.654Z,2.85
2022-10-22T09:13:44.085Z,3.20
2022-10-22T09:16:21.542Z,2.83
2022-10-22T09:19:07.880Z,2.85
2022-10-22T09:21:45.052Z,2.78
2022-10-22T09:24:20.375Z,2.78
2022-10-22T09:26:47.317Z,3.15
2022-10-22T09:29:18.622Z,2.88
2022-10-22T09:31:45.401Z,3.30
2022-10-22T09:34:15.792Z,2.95
2022-10-22T09:36:43.887Z,2.97
2022-10-22T09:39:33.525Z,2.30
2022-10-22T09:42:00.250Z,2.30
2022-10-22T09:44:26.903Z,2.20
2022-10-22T09:46:53.704Z,2.25
2022-10-22T09:49:23.704Z,2.40
2022-10-22T09:51:56.627Z,2.95
2022-10-22T09:54:42.897Z,2.67
2022-10-22T09:57:22.511Z,2.53
2022-10-22T09:59:51.421Z,2.50
2022-10-22T10:02:37.479Z,2.42
2022-10-22T10:05:06.530Z,2.42
2022-10-22T10:07:34.894Z,2.53
2022-10-22T10:10:07.076Z,2.75
2022-10-22T10:13:01.543Z,2.25
2022-10-22T10:15:36.591Z,2.20
2022-10-22T10:18:54.744Z,1.90
2022-10-22T10:22:01.828Z,2.10
2022-10-22T10:24:34.471Z,1.90
2022-10-22T10:27:23.667Z,1.88
2022-10-22T10:29:57.508Z,1.65
2022-10-22T10:32:55.241Z,2.75
2022-10-22T10:35:26.422Z,1.92
2022-10-22T10:38:27.299Z,2.25
2022-10-22T10:41:19.680Z,2.65
2022-10-22T10:44:14.072Z,2.63
2022-10-22T10:47:11.366Z,2.15
2022-10-22T10:49:38.659Z,2.15
2022-10-22T10:52:22.595Z,2.20
2022-10-22T10:54:49.135Z,1.80
2022-10-22T10:57:35.812Z,2.10
2022-10-22T11:00:16.128Z,1.60
2022-10-22T11:02:42.694Z,1.65
2022-10-22T11:05:34.511Z,1.85
2022-10-22T11:08:16.506Z,2.10
2022-10-22T11:11:02.983Z,2.35
2022-10-22T11:13:33.653Z,2.47
2022-10-22T11:16:28.251Z,3.35
2022-10-22T11:19:06.070Z,1.90
2022-10-22T11:21:39.979Z,1.33
2022-10-22T11:24:27.029Z,1.50
2022-10-22T11:27:07.039Z,1.40
2022-10-22T11:29:41.136Z,1.30
2022-10-22T11:32:14.805Z,1.48
2022-10-22T11:34:51.251Z,1.50
2022-10-22T11:37:18.401Z,1.20
2022-10-22T11:39:50.057Z,1.80
2022-10-22T11:42:32.374Z,1.40
2022-10-22T11:45:24.552Z,1.25
2022-10-22T11:48:09.533Z,1.48
2022-10-22T11:50:48.254Z,1.40
2022-10-22T11:53:41.672Z,1.65
2022-10-22T11:56:22.376Z,1.50
2022-10-22T11:58:52.323Z,1.65
2022-10-22T12:01:28.766Z,1.42
2022-10-22T12:03:58.370Z,1.90
2022-10-22T12:06:29.277Z,1.05
2022-10-22T12:09:03.097Z,1.70
2022-10-22T12:11:40.402Z,1.27
2022-10-22T12:14:12.988Z,1.50
2022-10-22T12:16:57.808Z,1.80
2022-10-22T12:19:49.330Z,1.50
2022-10-22T12:22:19.935Z,1.27
2022-10-22T12:24:51.630Z,1.38
2022-10-22T12:27:25.955Z,1.45
2022-10-22T12:29:57.635Z,2.00
2022-10-22T12:32:34.022Z,2.10
2022-10-22T12:35:08.542Z,1.50
2022-10-22T12:37:37.250Z,1.70
2022-10-22T12:40:21.095Z,1.30
2022-10-22T12:42:55.601Z,1.05
2022-10-22T12:45:23.171Z,1.73
2022-10-22T12:47:51.826Z,1.50
2022-10-22T12:50:20.901Z,1.33
2022-10-22T12:52:49.599Z,1.27
2022-10-22T12:55:18.307Z,1.58
2022-10-22T12:57:48.160Z,1.30
2022-10-22T13:00:26.943Z,1.35
2022-10-22T13:02:54.306Z,1.00
2022-10-22T13:05:27.369Z,1.73
2022-10-22T13:08:22.074Z,1.90
2022-10-22T13:10:53.553Z,1.30
2022-10-22T13:13:43.651Z,1.38
2022-10-22T13:16:24.192Z,1.30
2022-10-22T13:18:52.283Z,1.60
2022-10-22T13:21:38.230Z,1.23
2022-10-22T13:24:21.835Z,0.98
2022-10-22T13:26:50.661Z,1.40
2022-10-22T13:29:19.373Z,1.20
2022-10-22T13:31:49.541Z,0.95
2022-10-22T13:34:19.151Z,1.10
2022-10-22T13:36:46.080Z,0.90
2022-10-22T13:39:35.133Z,0.88
2022-10-22T13:42:03.007Z,0.82
2022-10-22T13:44:30.074Z,1.13
2022-10-22T13:46:56.820Z,0.98
2022-10-22T13:49:23.481Z,1.13
2022-10-22T13:51:53.527Z,1.15
2022-10-22T13:54:23.335Z,1.67
2022-10-22T13:56:50.256Z,1.42
2022-10-22T13:59:19.757Z,2.25
2022-10-22T14:01:50.017Z,1.30
2022-10-22T14:04:16.664Z,1.10
2022-10-22T14:06:43.376Z,1.02
2022-10-22T14:09:15.459Z,1.58
2022-10-22T14:11:43.689Z,1.00
2022-10-22T14:14:18.832Z,1.35
2022-10-22T14:16:46.549Z,1.05
2022-10-22T14:19:15.643Z,0.85
2022-10-22T14:21:42.518Z,1.38
2022-10-22T14:24:13.150Z,1.33
2022-10-22T14:26:40.343Z,1.40
2022-10-22T14:29:11.111Z,2.13
2022-10-22T14:31:43.226Z,1.10
2022-10-22T14:34:12.857Z,1.00
2022-10-22T14:36:45.494Z,1.48
2022-10-22T14:39:14.735Z,1.83
2022-10-22T14:41:41.981Z,1.75
2022-10-22T14:44:12.713Z,1.90
2022-10-22T14:46:42.280Z,1.05
2022-10-22T14:49:08.901Z,1.20
2022-10-22T14:51:37.282Z,1.50
2022-10-22T14:54:04.134Z,1.55
2022-10-22T14:56:30.837Z,1.48
2022-10-22T14:58:58.601Z,1.55
2022-10-22T15:01:25.387Z,1.35
2022-10-22T15:03:52.343Z,1.80
2022-10-22T15:06:19.095Z,1.35
2022-10-22T15:08:45.914Z,1.67
2022-10-22T15:11:14.566Z,1.58
2022-10-22T15:13:43.672Z,1.75
2022-10-22T15:16:13.586Z,1.70
2022-10-22T15:18:40.590Z,1.52
2022-10-22T15:21:13.191Z,1.60
2022-10-22T15:23:40.617Z,1.90
2022-10-22T15:26:10.322Z,1.65
2022-10-22T15:28:39.586Z,1.67
2022-10-22T15:31:06.768Z,2.08
2022-10-22T15:33:37.342Z,2.20
2022-10-22T15:36:15.466Z,1.98
2022-10-22T15:38:43.952Z,1.50
2022-10-22T15:41:12.348Z,2.20
2022-10-22T15:43:39.353Z,2.30
2022-10-22T15:46:19.672Z,2.20
2022-10-22T15:48:47.386Z,3.25
2022-10-22T15:51:18.617Z,2.50
2022-10-22T15:53:53.844Z,2.38
2022-10-22T15:56:30.487Z,3.00
2022-10-22T15:58:59.692Z,2.17
2022-10-22T16:01:29.139Z,2.75
2022-10-22T16:04:02.992Z,2.30
2022-10-22T16:06:41.489Z,2.33
2022-10-22T16:09:12.113Z,2.55
2022-10-22T16:11:39.703Z,3.33
2022-10-22T16:14:07.581Z,4.30
2022-10-22T16:16:36.424Z,3.20
2022-10-22T16:19:03.359Z,4.03
2022-10-22T16:21:30.498Z,2.90
2022-10-22T16:23:57.322Z,3.42
2022-10-22T16:26:25.859Z,3.08
2022-10-22T16:28:54.029Z,4.32
2022-10-22T16:31:21.013Z,4.78
2022-10-22T16:33:50.026Z,3.78
2022-10-22T16:36:19.264Z,4.10
2022-10-22T16:38:47.231Z,4.28
2022-10-22T16:41:23.860Z,4.00
2022-10-22T16:43:54.583Z,4.60
2022-10-22T16:46:22.489Z,4.50
2022-10-22T16:48:52.749Z,3.92
2022-10-22T16:51:24.686Z,3.70
2022-10-22T16:53:52.107Z,4.22
2022-10-22T16:56:23.479Z,4.47
2022-10-22T16:58:52.921Z,4.93
2022-10-22T17:01:22.029Z,4.05
2022-10-22T17:03:48.730Z,4.30
2022-10-22T17:06:19.318Z,3.72
2022-10-22T17:08:46.306Z,5.00
2022-10-22T17:11:18.393Z,5.20
2022-10-22T17:13:47.001Z,5.85
2022-10-22T17:16:16.441Z,4.85
2022-10-22T17:21:13.245Z,7.57
2022-10-22T17:23:40.033Z,7.25
2022-10-22T17:26:09.796Z,8.75
2022-10-22T17:28:36.491Z,8.88
2022-10-22T17:31:10.858Z,8.88
2022-10-22T17:33:37.648Z,9.05
2022-10-22T17:36:10.922Z,11.00
2022-10-22T17:38:38.847Z,13.95
2022-10-22T17:41:07.485Z,17.98
2022-10-22T17:43:39.138Z,19.70
2022-10-22T17:46:13.216Z,23.00
2022-10-22T17:48:39.913Z,24.40
2022-10-22T17:51:09.551Z,33.65
2022-10-22T17:53:42.895Z,21.73
2022-10-22T17:56:10.751Z,22.38
2022-10-22T17:58:37.701Z,25.58
2022-10-22T18:01:04.944Z,26.05
2022-10-22T18:03:33.338Z,29.00
2022-10-22T18:06:07.639Z,25.25
2022-10-22T18:08:34.457Z,21.77
2022-10-22T18:11:07.568Z,28.58
2022-10-22T18:13:35.569Z,30.58
2022-10-22T18:16:02.503Z,33.33
2022-10-22T18:18:33.268Z,33.58
2022-10-22T18:21:00.853Z,29.60
2022-10-22T18:23:27.628Z,28.77
2022-10-22T18:25:54.503Z,24.05
2022-10-22T18:28:21.289Z,22.40
2022-10-22T18:30:48.249Z,21.13
2022-10-22T18:33:16.246Z,21.67
2022-10-22T18:35:45.903Z,22.13
2022-10-22T18:38:12.667Z,21.40
2022-10-22T18:40:46.232Z,21.42
2022-10-22T18:43:13.628Z,20.48
2022-10-22T18:45:44.872Z,21.15
2022-10-22T18:48:14.269Z,19.40
2022-10-22T18:50:41.040Z,18.05
2022-10-22T18:53:10.916Z,17.65
2022-10-22T18:55:39.643Z,16.88
2022-10-22T18:58:06.714Z,16.98
2022-10-22T19:00:35.327Z,16.58
2022-10-22T19:03:03.224Z,16.02
2022-10-22T19:05:29.934Z,17.80
2022-10-22T19:07:56.782Z,16.75
2022-10-22T19:10:25.543Z,15.60
2022-10-22T19:12:53.554Z,16.40
2022-10-22T19:15:20.220Z,15.65
2022-10-22T19:17:46.900Z,14.38
2022-10-22T19:20:13.623Z,12.55
2022-10-22T19:22:40.308Z,13.75
2022-10-22T19:25:09.763Z,13.90
2022-10-22T19:27:40.152Z,12.93
2022-10-22T19:30:07.854Z,13.52
2022-10-22T19:32:34.889Z,13.27
2022-10-22T19:35:01.854Z,13.68
2022-10-22T19:37:30.728Z,13.57
2022-10-22T19:39:57.732Z,13.75
2022-10-22T19:45:06.183Z,12.23
2022-10-22T19:47:33.050Z,11.63
2022-10-22T19:50:00.362Z,11.15
2022-10-22T19:52:27.463Z,12.23
2022-10-22T19:54:54.198Z,12.18
2022-10-22T19:57:23.657Z,12.18
2022-10-22T19:59:51.087Z,12.57
2022-10-22T20:02:19.390Z,11.98
2022-10-22T20:04:49.276Z,12.95
2022-10-22T20:07:17.014Z,13.63
2022-10-22T20:09:43.684Z,13.27
2022-10-22T20:12:16.643Z,13.20
2022-10-22T20:14:47.391Z,12.48
2022-10-22T20:17:14.353Z,13.02
2022-10-22T20:19:43.193Z,13.00
2022-10-22T20:22:12.557Z,13.35
2022-10-22T20:24:41.604Z,14.57
2022-10-22T20:27:09.453Z,15.32
2022-10-22T20:29:36.121Z,14.25
2022-10-22T20:32:08.734Z,15.23
2022-10-22T20:34:37.127Z,14.13
2022-10-22T20:37:05.968Z,13.45
2022-10-22T20:39:34.477Z,14.30
2022-10-22T20:42:02.835Z,13.95
2022-10-22T20:44:29.515Z,13.95
2022-10-22T20:49:24.409Z,13.32
2022-10-22T20:51:51.133Z,13.77
2022-10-22T20:54:19.193Z,13.32
2022-10-22T20:56:47.933Z,12.40
2022-10-22T20:59:18.126Z,12.10
2022-10-22T21:01:50.985Z,11.73
2022-10-22T21:04:20.661Z,10.55
2022-10-22T21:06:48.655Z,10.27
2022-10-22T21:09:15.779Z,9.93
2022-10-22T21:11:46.029Z,10.85
2022-10-22T21:14:14.792Z,11.70
2022-10-22T21:16:45.971Z,11.52
2022-10-22T21:19:12.984Z,10.90
2022-10-22T21:21:39.660Z,10.55
2022-10-22T21:24:06.410Z,10.52
2022-10-22T21:26:35.899Z,11.75
2022-10-22T21:29:02.500Z,12.75
2022-10-22T21:31:29.314Z,10.95
2022-10-22T21:33:56.019Z,12.05
2022-10-22T21:36:23.813Z,12.48
2022-10-22T21:38:54.243Z,12.85
2022-10-22T21:41:22.661Z,11.43
2022-10-22T21:43:50.310Z,10.48
2022-10-22T21:46:26.803Z,10.30
2022-10-22T21:48:59.372Z,9.95
2022-10-22T21:54:17.153Z,10.00
2022-10-22T21:56:47.741Z,10.23
2022-10-22T21:59:14.637Z,10.63
2022-10-22T22:01:41.470Z,10.13
2022-10-22T22:04:08.164Z,9.98
2022-10-22T22:06:35.202Z,9.77
2022-10-22T22:09:03.131Z,9.95
2022-10-22T22:11:30.416Z,10.25
2022-10-22T22:13:57.847Z,10.23
2022-10-22T22:16:29.626Z,9.88
2022-10-22T22:18:59.928Z,9.52
2022-10-22T22:21:28.847Z,9.88
2022-10-22T22:23:57.623Z,10.30
2022-10-22T22:26:28.602Z,14.07
2022-10-22T22:28:57.871Z,12.35
2022-10-22T22:31:25.519Z,12.50
2022-10-22T22:34:01.359Z,13.02
2022-10-22T22:36:28.797Z,13.73
2022-10-22T22:38:56.643Z,12.20
2022-10-22T22:41:23.332Z,11.63
2022-10-22T22:43:50.167Z,12.90
2022-10-22T22:46:17.235Z,12.15
2022-10-22T22:48:43.879Z,10.48
2022-10-22T22:51:10.831Z,12.15
2022-10-22T22:53:37.914Z,12.05
2022-10-22T22:56:13.710Z,12.07
2022-10-22T22:58:40.775Z,11.75
2022-10-22T23:01:11.590Z,12.00
2022-10-22T23:03:38.685Z,11.25
2022-10-22T23:06:05.453Z,13.07
2022-10-22T23:08:32.237Z,12.18
2022-10-22T23:11:07.422Z,12.25
2022-10-22T23:13:34.455Z,11.70
2022-10-22T23:16:08.481Z,11.30
2022-10-22T23:18:35.408Z,10.85
2022-10-22T23:21:06.613Z,10.10
2022-10-22T23:23:34.132Z,9.57
2022-10-22T23:26:03.087Z,10.40
2022-10-22T23:28:29.773Z,8.90
2022-10-22T23:30:56.427Z,10.23
2022-10-22T23:33:23.059Z,9.07
2022-10-22T23:35:50.877Z,10.02
2022-10-22T23:38:17.624Z,9.52
2022-10-22T23:40:44.259Z,9.23
2022-10-22T23:43:10.881Z,10.77
2022-10-22T23:45:37.551Z,8.88
2022-10-22T23:48:04.298Z,9.65
2022-10-22T23:50:31.012Z,9.20
2022-10-22T23:52:58.787Z,9.25
2022-10-22T23:55:25.623Z,9.65
2022-10-22T23:57:52.205Z,8.90
